GMMN/CMN METAR and TAF weather

Enter ICAO airport designator
Station Type Date Time Source
GMMN METAR 2022/01/26 08:00 UTC NOAA

GMMN 260800Z 22003KT CAVOK 07/07 Q1019 NOSIG


Station Type Date Time Source
GMMN Decoded METAR 2022/01/26 08:00 UTC NOAA

Nouasseur, Morocco (GMMN) 33-22N 007-35W 206M
Jan 26, 2022 - 03:00 AM EST / 2022.01.26 0800 UTC
Wind: from the SW (220 degrees) at 3 MPH (3 KT):0
Visibility: greater than 7 mile(s):0
Temperature: 44 F (7 C)
Dew Point: 44 F (7 C)
Relative Humidity: 100%
Pressure (altimeter): 30.09 in. Hg (1019 hPa)
ob: GMMN 260800Z 22003KT CAVOK 07/07 Q1019 NOSIG
cycle: 8

Station Type Date Time Source
GMMN TAF 2022/01/26 06:18 UTC NOAA

TAF GMMN 260500Z 2606/2712 16005KT CAVOK PROB30
TEMPO 2608/2616 4000 TSRA BKN020 FEW033TCU BKN080
BECMG 02014KT
BECMG 2620/2624 12005KT

Example: see airport list